createdAt,value
2022-07-26T00:00:05.430Z,19.70
2022-07-26T00:03:07.223Z,19.74
2022-07-26T00:06:09.603Z,19.76
2022-07-26T00:09:11.557Z,19.80
2022-07-26T00:12:13.283Z,19.81
2022-07-26T00:15:14.899Z,19.88
2022-07-26T00:18:17.721Z,19.90
2022-07-26T00:21:19.355Z,19.93
2022-07-26T00:24:20.963Z,19.97
2022-07-26T00:27:22.788Z,19.97
2022-07-26T00:30:27.841Z,19.97
2022-07-26T00:33:29.559Z,19.94
2022-07-26T00:36:31.170Z,19.98
2022-07-26T00:39:33.017Z,19.95
2022-07-26T00:42:34.871Z,19.98
2022-07-26T00:45:36.603Z,19.98
2022-07-26T00:48:38.211Z,19.94
2022-07-26T00:51:39.966Z,19.95
2022-07-26T00:54:45.809Z,19.95
2022-07-26T00:57:47.742Z,19.92
2022-07-26T01:00:49.710Z,19.91
2022-07-26T01:03:53.234Z,19.94
2022-07-26T01:06:55.210Z,19.92
2022-07-26T01:09:57.205Z,19.92
2022-07-26T01:12:59.003Z,19.88
2022-07-26T01:16:00.648Z,19.88
2022-07-26T01:19:02.315Z,19.87
2022-07-26T01:22:03.976Z,19.90
2022-07-26T01:25:09.512Z,19.85
2022-07-26T01:28:11.167Z,19.76
2022-07-26T01:31:21.890Z,19.76
2022-07-26T01:34:23.654Z,19.78
2022-07-26T01:37:25.283Z,19.73
2022-07-26T01:40:26.994Z,19.72
2022-07-26T01:43:28.673Z,19.72
2022-07-26T01:46:30.538Z,19.66
2022-07-26T01:49:32.148Z,19.67
2022-07-26T01:52:35.573Z,19.66
2022-07-26T01:55:37.433Z,19.66
2022-07-26T01:58:40.811Z,19.66
2022-07-26T02:01:42.498Z,19.64
2022-07-26T02:04:59.082Z,19.64
2022-07-26T02:08:00.730Z,19.60
2022-07-26T02:11:04.046Z,19.57
2022-07-26T02:14:06.138Z,19.51
2022-07-26T02:17:08.197Z,19.49
2022-07-26T02:20:10.147Z,19.46
2022-07-26T02:23:12.210Z,19.41
2022-07-26T02:26:13.809Z,19.36
2022-07-26T02:29:15.688Z,19.34
2022-07-26T02:32:17.358Z,19.35
2022-07-26T02:35:19.185Z,19.33
2022-07-26T02:38:20.827Z,19.36
2022-07-26T02:41:23.910Z,19.33
2022-07-26T02:44:27.118Z,19.35
2022-07-26T02:47:28.910Z,19.28
2022-07-26T02:50:30.636Z,19.27
2022-07-26T02:53:32.982Z,19.27
2022-07-26T02:56:34.526Z,19.27
2022-07-26T02:59:37.050Z,19.24
2022-07-26T03:02:39.242Z,19.22
2022-07-26T03:05:40.979Z,19.19
2022-07-26T03:08:42.561Z,19.19
2022-07-26T03:11:44.241Z,19.16
2022-07-26T03:14:45.832Z,19.13
2022-07-26T03:17:47.469Z,19.12
2022-07-26T03:20:49.984Z,19.07
2022-07-26T03:23:51.608Z,19.08
2022-07-26T03:26:53.215Z,19.07
2022-07-26T03:29:54.861Z,19.05
2022-07-26T03:32:56.520Z,19.04
2022-07-26T03:35:58.104Z,19.03
2022-07-26T03:39:00.489Z,19.00
2022-07-26T03:42:02.126Z,18.99
2022-07-26T03:45:04.084Z,18.97
2022-07-26T03:48:06.084Z,18.96
2022-07-26T03:51:07.887Z,18.94
2022-07-26T03:54:09.996Z,18.91
2022-07-26T03:57:11.940Z,18.94
2022-07-26T04:00:13.952Z,18.96
2022-07-26T04:03:15.511Z,18.94
2022-07-26T04:06:17.120Z,18.94
2022-07-26T04:09:19.332Z,18.93
2022-07-26T04:12:21.025Z,18.92
2022-07-26T04:15:22.871Z,18.98
2022-07-26T04:18:24.743Z,18.94
2022-07-26T04:21:26.560Z,18.94
2022-07-26T04:24:28.256Z,18.92
2022-07-26T04:27:30.210Z,18.93
2022-07-26T04:30:31.919Z,18.92
2022-07-26T04:33:33.816Z,18.95
2022-07-26T04:36:35.420Z,18.92
2022-07-26T04:39:37.049Z,18.93
2022-07-26T04:42:38.805Z,18.92
2022-07-26T04:45:40.528Z,18.93
2022-07-26T04:48:42.309Z,18.94
2022-07-26T04:51:59.704Z,18.93
2022-07-26T04:55:01.362Z,18.89
2022-07-26T04:58:03.862Z,18.93
2022-07-26T05:01:10.410Z,18.93
2022-07-26T05:04:13.111Z,18.95
2022-07-26T05:07:14.705Z,18.91
2022-07-26T05:10:18.113Z,18.89
2022-07-26T05:13:23.078Z,18.90
2022-07-26T05:16:31.489Z,18.92
2022-07-26T05:19:34.458Z,18.85
2022-07-26T05:22:36.920Z,18.81
2022-07-26T05:25:39.130Z,18.74
2022-07-26T05:28:40.944Z,18.66
2022-07-26T05:31:42.904Z,18.65
2022-07-26T05:34:44.513Z,18.63
2022-07-26T05:37:46.346Z,18.64
2022-07-26T05:40:50.668Z,18.67
2022-07-26T05:43:52.747Z,18.67
2022-07-26T05:46:58.178Z,18.68
2022-07-26T05:50:00.479Z,18.68
2022-07-26T05:53:02.221Z,18.71
2022-07-26T05:56:21.798Z,18.78
2022-07-26T05:59:23.410Z,18.95
2022-07-26T06:02:25.208Z,19.07
2022-07-26T06:05:26.899Z,19.11
2022-07-26T06:08:28.758Z,19.73
2022-07-26T06:11:30.356Z,20.05
2022-07-26T06:14:31.986Z,20.13
2022-07-26T06:17:34.909Z,21.09
2022-07-26T06:20:41.646Z,21.57
2022-07-26T06:23:43.223Z,21.75
2022-07-26T06:26:56.791Z,21.88
2022-07-26T06:29:59.623Z,22.00
2022-07-26T06:33:01.355Z,21.74
2022-07-26T06:36:06.169Z,21.49
2022-07-26T06:39:10.800Z,21.31
2022-07-26T06:42:12.996Z,21.30
2022-07-26T06:45:17.164Z,21.23
2022-07-26T06:48:18.822Z,21.15
2022-07-26T06:51:22.472Z,21.09
2022-07-26T06:54:24.468Z,20.92
2022-07-26T06:57:26.537Z,20.95
2022-07-26T07:00:29.142Z,20.98
2022-07-26T07:03:30.932Z,20.98
2022-07-26T07:06:32.804Z,21.11
2022-07-26T07:09:36.012Z,21.11
2022-07-26T07:12:38.045Z,21.01
2022-07-26T07:15:42.030Z,21.04
2022-07-26T07:18:44.105Z,21.11
2022-07-26T07:21:47.193Z,21.28
2022-07-26T07:24:48.861Z,21.32
2022-07-26T07:27:50.730Z,21.41
2022-07-26T07:30:52.519Z,21.33
2022-07-26T07:33:54.193Z,21.45
2022-07-26T07:36:57.157Z,21.52
2022-07-26T07:40:00.937Z,21.55
2022-07-26T07:43:02.670Z,21.62
2022-07-26T07:46:05.004Z,21.51
2022-07-26T07:49:07.419Z,21.48
2022-07-26T07:52:09.452Z,21.60
2022-07-26T07:55:36.697Z,21.65
2022-07-26T07:58:33.197Z,21.87
2022-07-26T08:01:39.655Z,21.98
2022-07-26T08:04:42.523Z,22.05
2022-07-26T08:07:45.367Z,22.04
2022-07-26T08:10:51.548Z,21.79
2022-07-26T08:13:54.199Z,21.65
2022-07-26T08:17:01.062Z,21.67
2022-07-26T08:20:06.205Z,21.84
2022-07-26T08:23:11.164Z,21.86
2022-07-26T08:26:12.914Z,21.92
2022-07-26T08:29:14.819Z,22.04
2022-07-26T08:32:16.787Z,22.14
2022-07-26T08:35:19.731Z,22.16
2022-07-26T08:38:22.901Z,22.23
2022-07-26T08:41:24.831Z,22.27
2022-07-26T08:44:26.714Z,22.33
2022-07-26T08:47:37.589Z,22.36
2022-07-26T08:50:45.413Z,22.39
2022-07-26T08:53:48.204Z,22.38
2022-07-26T08:56:53.254Z,22.23
2022-07-26T09:00:19.293Z,21.92
2022-07-26T09:03:31.633Z,21.53
2022-07-26T09:06:33.417Z,21.11
2022-07-26T09:09:56.466Z,20.74
2022-07-26T09:13:01.365Z,20.46
2022-07-26T09:16:14.414Z,20.26
2022-07-26T09:19:22.184Z,20.11
2022-07-26T09:22:23.913Z,19.95
2022-07-26T09:25:26.721Z,19.83
2022-07-26T09:28:31.334Z,19.65
2022-07-26T09:31:35.676Z,19.59
2022-07-26T09:34:44.511Z,19.52
2022-07-26T09:37:54.068Z,19.67
2022-07-26T09:40:55.846Z,19.82
2022-07-26T09:44:01.946Z,19.79
2022-07-26T09:47:03.704Z,19.57
2022-07-26T09:50:13.012Z,19.38
2022-07-26T09:53:14.896Z,19.14
2022-07-26T09:56:19.976Z,19.03
2022-07-26T09:59:23.536Z,19.11
2022-07-26T10:02:25.795Z,19.23
2022-07-26T10:05:28.514Z,19.37
2022-07-26T10:08:31.493Z,19.47
2022-07-26T10:12:07.287Z,19.63
2022-07-26T10:15:46.881Z,19.85
2022-07-26T10:18:50.259Z,19.98
2022-07-26T10:22:35.086Z,20.36
2022-07-26T10:25:49.318Z,20.39
2022-07-26T10:28:53.460Z,20.56
2022-07-26T10:36:38.623Z,21.08
2022-07-26T10:39:41.088Z,20.94
2022-07-26T10:42:55.652Z,20.78
2022-07-26T10:46:20.651Z,20.68
2022-07-26T10:49:34.493Z,20.42
2022-07-26T10:52:36.411Z,20.08
2022-07-26T10:56:16.152Z,19.84
2022-07-26T10:59:55.720Z,19.74
2022-07-26T11:03:00.159Z,19.66
2022-07-26T11:06:17.390Z,19.51
2022-07-26T11:09:21.188Z,19.36
2022-07-26T11:12:23.757Z,19.26
2022-07-26T11:15:25.467Z,19.21
2022-07-26T11:18:30.763Z,19.17
2022-07-26T11:21:32.432Z,19.14
2022-07-26T11:24:40.853Z,19.25
2022-07-26T11:28:02.080Z,19.41
2022-07-26T11:31:10.189Z,19.53
2022-07-26T11:34:22.154Z,19.72
2022-07-26T11:37:23.798Z,19.84
2022-07-26T11:40:47.617Z,19.94
2022-07-26T11:43:50.567Z,20.00
2022-07-26T11:46:52.866Z,19.98
2022-07-26T11:50:14.267Z,20.12
2022-07-26T11:53:22.910Z,20.57
2022-07-26T11:56:24.754Z,20.94
2022-07-26T11:59:32.696Z,21.23
2022-07-26T12:02:34.378Z,21.35
2022-07-26T12:05:36.667Z,21.46
2022-07-26T12:08:43.938Z,21.55
2022-07-26T12:11:47.942Z,21.59
2022-07-26T12:15:04.810Z,21.67
2022-07-26T12:18:07.289Z,21.73
2022-07-26T12:21:09.689Z,21.66
2022-07-26T12:24:13.594Z,21.54
2022-07-26T12:27:15.397Z,21.37
2022-07-26T12:30:17.414Z,21.22
2022-07-26T12:33:19.017Z,21.01
2022-07-26T12:36:27.945Z,20.81
2022-07-26T12:39:30.994Z,20.62
2022-07-26T12:42:38.916Z,20.43
2022-07-26T12:45:40.776Z,20.25
2022-07-26T12:48:45.536Z,20.15
2022-07-26T12:51:47.261Z,19.97
2022-07-26T12:54:51.777Z,19.88
2022-07-26T12:57:55.723Z,19.75
2022-07-26T13:00:57.652Z,19.65
2022-07-26T13:04:00.107Z,19.64
2022-07-26T13:07:01.920Z,19.63
2022-07-26T13:10:31.797Z,19.60
2022-07-26T13:13:27.276Z,19.58
2022-07-26T13:16:28.942Z,19.67
2022-07-26T13:19:31.143Z,19.80
2022-07-26T13:22:32.779Z,19.89
2022-07-26T13:25:38.327Z,19.96
2022-07-26T13:28:41.674Z,20.06
2022-07-26T13:31:43.423Z,20.31
2022-07-26T13:34:45.044Z,20.47
2022-07-26T13:37:46.652Z,20.55
2022-07-26T13:40:50.367Z,20.61
2022-07-26T13:43:56.588Z,20.60
2022-07-26T13:46:58.204Z,20.56
2022-07-26T13:49:59.921Z,20.48
2022-07-26T13:53:01.730Z,20.41
2022-07-26T13:56:04.243Z,20.45
2022-07-26T13:59:05.968Z,20.51
2022-07-26T14:02:07.726Z,20.48
2022-07-26T14:05:09.689Z,20.40
2022-07-26T14:08:11.345Z,20.30
2022-07-26T14:11:12.959Z,20.16
2022-07-26T14:14:15.003Z,20.09
2022-07-26T14:17:17.044Z,20.02
2022-07-26T14:20:18.816Z,20.07
2022-07-26T14:23:20.556Z,20.10
2022-07-26T14:26:22.577Z,20.07
2022-07-26T14:29:24.263Z,20.06
2022-07-26T14:32:25.961Z,20.06
2022-07-26T14:35:28.085Z,20.02
2022-07-26T14:38:30.268Z,20.00
2022-07-26T14:41:32.116Z,20.01
2022-07-26T14:44:34.666Z,20.01
2022-07-26T14:47:46.078Z,20.07
2022-07-26T14:51:08.808Z,20.27
2022-07-26T14:54:09.798Z,20.38
2022-07-26T14:57:11.626Z,20.54
2022-07-26T15:00:17.315Z,20.60
2022-07-26T15:03:19.011Z,20.58
2022-07-26T15:06:20.705Z,20.59
2022-07-26T15:09:22.326Z,20.62
2022-07-26T15:12:24.032Z,20.68
2022-07-26T15:15:26.067Z,20.65
2022-07-26T15:18:27.703Z,20.58
2022-07-26T15:21:29.306Z,20.46
2022-07-26T15:24:32.489Z,20.43
2022-07-26T15:27:35.864Z,20.39
2022-07-26T15:30:37.587Z,20.40
2022-07-26T15:33:39.190Z,20.45
2022-07-26T15:36:41.418Z,20.35
2022-07-26T15:39:43.071Z,20.26
2022-07-26T15:42:45.703Z,20.16
2022-07-26T15:45:48.150Z,20.17
2022-07-26T15:48:51.302Z,20.23
2022-07-26T15:51:52.945Z,20.27
2022-07-26T15:54:54.585Z,20.27
2022-07-26T16:00:58.106Z,20.11
2022-07-26T16:04:01.010Z,20.04
2022-07-26T16:07:05.532Z,19.98
2022-07-26T16:10:08.248Z,19.98
2022-07-26T16:13:09.912Z,20.00
2022-07-26T16:16:12.390Z,19.98
2022-07-26T16:19:14.480Z,19.98
2022-07-26T16:22:17.658Z,19.97
2022-07-26T16:25:19.284Z,19.96
2022-07-26T16:28:20.986Z,19.95
2022-07-26T16:31:22.711Z,19.90
2022-07-26T16:34:24.534Z,19.80
2022-07-26T16:37:26.193Z,19.83
2022-07-26T16:40:27.981Z,19.85
2022-07-26T16:43:29.735Z,19.82
2022-07-26T16:46:31.629Z,19.81
2022-07-26T16:49:35.389Z,19.76
2022-07-26T16:52:39.564Z,19.72
2022-07-26T16:55:41.234Z,19.73
2022-07-26T16:58:42.869Z,19.71
2022-07-26T17:01:48.320Z,19.71
2022-07-26T17:04:50.355Z,19.72
2022-07-26T17:07:51.995Z,19.72
2022-07-26T17:10:53.633Z,19.72
2022-07-26T17:13:55.298Z,19.66
2022-07-26T17:16:59.599Z,19.59
2022-07-26T17:20:01.205Z,19.52
2022-07-26T17:23:02.854Z,19.51
2022-07-26T17:26:04.752Z,19.54
2022-07-26T17:29:06.355Z,19.55
2022-07-26T17:32:08.729Z,19.53
2022-07-26T17:35:10.579Z,19.50
2022-07-26T17:38:12.262Z,19.49
2022-07-26T17:41:18.288Z,19.51
2022-07-26T17:44:21.470Z,19.51
2022-07-26T17:47:27.941Z,19.47
2022-07-26T17:50:36.976Z,19.47
2022-07-26T17:53:42.835Z,19.44
2022-07-26T17:56:44.433Z,19.38
2022-07-26T17:59:46.096Z,19.30
2022-07-26T18:02:48.717Z,19.24
2022-07-26T18:05:51.135Z,19.19
2022-07-26T18:08:52.933Z,19.13
2022-07-26T18:11:54.631Z,19.07
2022-07-26T18:14:56.691Z,19.03
2022-07-26T18:17:59.072Z,18.96
2022-07-26T18:21:00.712Z,18.89
2022-07-26T18:24:16.333Z,18.91
2022-07-26T18:27:19.632Z,18.82
2022-07-26T18:30:21.501Z,18.80
2022-07-26T18:33:23.245Z,18.77
2022-07-26T18:36:25.031Z,18.73
2022-07-26T18:39:30.491Z,18.72
2022-07-26T18:42:36.201Z,18.66
2022-07-26T18:45:37.880Z,18.63
2022-07-26T18:48:41.703Z,18.61
2022-07-26T18:51:44.863Z,18.58
2022-07-26T18:54:50.199Z,18.53
2022-07-26T18:57:53.617Z,18.51
2022-07-26T19:00:55.516Z,18.50
2022-07-26T19:03:57.326Z,18.48
2022-07-26T19:06:59.008Z,18.45
2022-07-26T19:10:00.630Z,18.43
2022-07-26T19:13:02.292Z,18.39
2022-07-26T19:16:04.121Z,18.39
2022-07-26T19:19:05.782Z,18.33
2022-07-26T19:22:07.479Z,18.30
2022-07-26T19:25:16.355Z,18.21
2022-07-26T19:28:18.064Z,18.19
2022-07-26T19:31:19.827Z,18.13
2022-07-26T19:34:21.470Z,18.11
2022-07-26T19:37:23.185Z,18.07
2022-07-26T19:40:25.041Z,18.06
2022-07-26T19:43:27.307Z,18.02
2022-07-26T19:46:31.243Z,17.97
2022-07-26T19:49:32.884Z,17.94
2022-07-26T19:52:35.064Z,17.94
2022-07-26T19:55:38.380Z,17.89
2022-07-26T19:58:40.055Z,17.82
2022-07-26T20:01:41.749Z,17.76
2022-07-26T20:04:46.205Z,17.71
2022-07-26T20:07:49.949Z,17.67
2022-07-26T20:10:52.300Z,17.62
2022-07-26T20:13:55.360Z,17.57
2022-07-26T20:16:58.148Z,17.53
2022-07-26T20:19:59.865Z,17.49
2022-07-26T20:23:03.563Z,17.45
2022-07-26T20:26:05.283Z,17.43
2022-07-26T20:29:07.483Z,17.40
2022-07-26T20:32:09.278Z,17.36
2022-07-26T20:35:10.950Z,17.36
2022-07-26T20:38:12.848Z,17.33
2022-07-26T20:41:14.496Z,17.32
2022-07-26T20:44:16.166Z,17.30
2022-07-26T20:47:20.514Z,17.21
2022-07-26T20:50:22.921Z,17.20
2022-07-26T20:53:25.767Z,17.22
2022-07-26T20:56:27.991Z,17.13
2022-07-26T20:59:29.707Z,17.11
2022-07-26T21:02:31.488Z,17.08
2022-07-26T21:05:33.162Z,17.03
2022-07-26T21:08:35.459Z,16.98
2022-07-26T21:11:37.704Z,16.92
2022-07-26T21:14:39.383Z,16.83
2022-07-26T21:17:41.409Z,16.76
2022-07-26T21:20:43.066Z,16.70
2022-07-26T21:23:44.766Z,16.63
2022-07-26T21:26:46.341Z,16.56
2022-07-26T21:29:47.920Z,16.49
2022-07-26T21:32:49.521Z,16.43
2022-07-26T21:35:51.322Z,16.32
2022-07-26T21:38:52.951Z,16.19
2022-07-26T21:41:54.556Z,16.12
2022-07-26T21:44:56.144Z,16.03
2022-07-26T21:47:57.787Z,15.94
2022-07-26T21:50:59.489Z,15.86
2022-07-26T21:54:01.798Z,15.80
2022-07-26T21:57:03.706Z,15.76
2022-07-26T22:00:06.332Z,15.70
2022-07-26T22:03:08.129Z,15.64
2022-07-26T22:06:10.914Z,15.56
2022-07-26T22:09:12.874Z,15.51
2022-07-26T22:12:14.840Z,15.48
2022-07-26T22:15:16.507Z,15.42
2022-07-26T22:18:20.289Z,15.35
2022-07-26T22:21:21.986Z,15.35
2022-07-26T22:24:23.650Z,15.34
2022-07-26T22:27:25.604Z,15.30
2022-07-26T22:30:28.499Z,15.29
2022-07-26T22:33:30.101Z,15.21
2022-07-26T22:36:31.765Z,15.13
2022-07-26T22:39:33.437Z,15.06
2022-07-26T22:42:35.142Z,14.96
2022-07-26T22:45:37.450Z,14.88
2022-07-26T22:48:42.163Z,14.83
2022-07-26T22:51:46.234Z,14.83
2022-07-26T22:54:47.970Z,14.79
2022-07-26T22:57:50.357Z,14.74
2022-07-26T23:00:52.085Z,14.70
2022-07-26T23:03:53.900Z,14.64
2022-07-26T23:06:55.861Z,14.56
2022-07-26T23:10:01.533Z,14.49
2022-07-26T23:13:03.178Z,14.40
2022-07-26T23:16:05.139Z,14.36
2022-07-26T23:19:07.096Z,14.32
2022-07-26T23:22:08.689Z,14.24
2022-07-26T23:25:10.398Z,14.20
2022-07-26T23:28:11.949Z,14.12
2022-07-26T23:31:34.026Z,14.01
2022-07-26T23:34:35.689Z,13.98
2022-07-26T23:37:37.329Z,13.90
2022-07-26T23:40:38.924Z,13.87
2022-07-26T23:43:40.475Z,13.83
2022-07-26T23:46:42.308Z,13.82
2022-07-26T23:49:43.945Z,13.81
2022-07-26T23:52:45.598Z,13.81
2022-07-26T23:55:49.135Z,13.78
2022-07-26T23:58:50.956Z,13.76
